| time (UTC) | temp C | wind direction | speed KPH | gust KPH | rain 1hr cm | rain 24hr cm | rain mn cm | humidity % | barometer mb |
| 20260507161502 | 20 | 171 | 4.8 | 8.0 | 0.00 | 0.00 | 0.00 | 71 | 1015.9 |
| 20260507154502 | 18 | 223 | 3.2 | 9.7 | 0.00 | 0.00 | 0.00 | 78 | 1016.0 |
| 20260507153001 | 17 | 113 | 3.2 | 6.4 | 0.00 | 0.00 | 0.00 | 80 | 1016.0 |
| 20260507151502 | 17 | 163 | 3.2 | 9.7 | 0.00 | 0.00 | 0.00 | 82 | 1016.0 |
| 20260507150002 | 16 | 190 | 3.2 | 9.7 | 0.00 | 0.00 | 0.00 | 86 | 1016.0 |
| 20260507144501 | 15 | 132 | 3.2 | 9.7 | 0.00 | 0.00 | 0.00 | 87 | 1016.0 |
| 20260507143002 | 15 | 121 | 3.2 | 8.0 | 0.00 | 0.00 | 0.00 | 89 | 1015.7 |
| 20260507141502 | 15 | 119 | 3.2 | 6.4 | 0.00 | 0.00 | 0.00 | 88 | 1015.7 |
| 20260507140002 | 14 | 111 | 3.2 | 9.7 | 0.00 | 0.00 | 0.00 | 88 | 1015.6 |
| 20260507134502 | 13 | 77 | 3.2 | 6.4 | 0.00 | 0.00 | 0.00 | 89 | 1015.4 |
| 20260507131502 | 12 | 67 | 3.2 | 4.8 | 0.00 | 0.00 | 0.00 | 91 | 1015.3 |
| 20260507130003 | 12 | 73 | 3.2 | 6.4 | 0.00 | 0.00 | 0.00 | 91 | 1015.1 |
| 20260507124501 | 12 | 78 | 1.6 | 4.8 | 0.00 | 0.00 | 0.00 | 91 | 1015.0 |
| 20260507123002 | 12 | 116 | 0.0 | 1.6 | 0.00 | 0.00 | 0.00 | 91 | 1015.0 |
| 20260507121502 | 13 | 84 | 3.2 | 6.4 | 0.00 | 0.00 | 0.00 | 90 | 1014.8 |
| 20260507120002 | 12 | 111 | 3.2 | 6.4 | 0.00 | 0.00 | 0.00 | 90 | 1014.8 |
| 20260507114502 | 12 | 77 | 3.2 | 4.8 | 0.00 | 0.00 | 0.00 | 90 | 1014.9 |
| 20260507113001 | 13 | 92 | 1.6 | 4.8 | 0.00 | 0.00 | 0.00 | 90 | 1015.0 |
| 20260507110000 | 13 | 92 | 3.2 | 6.4 | 0.00 | 0.00 | 0.00 | 90 | 1015.1 |
| 20260507104501 | 13 | 80 | 3.2 | 6.4 | 0.00 | 0.00 | 0.00 | 90 | 1015.2 |
| 20260507103000 | 13 | 74 | 3.2 | 6.4 | 0.00 | 0.00 | 0.00 | 90 | 1015.3 |
| 20260507101500 | 13 | 77 | 1.6 | 3.2 | 0.00 | 0.00 | 0.00 | 89 | 1015.4 |
| 20260507100002 | 13 | 101 | 1.6 | 3.2 | 0.00 | 0.00 | 0.00 | 89 | 1015.4 |
| 20260507094500 | 13 | 109 | 3.2 | 4.8 | 0.00 | 0.00 | 0.00 | 89 | 1015.5 |
| 20260507093001 | 13 | 81 | 3.2 | 4.8 | 0.00 | 0.00 | 0.00 | 89 | 1015.7 |
| 20260507091500 | 13 | 80 | 3.2 | 4.8 | 0.00 | 0.00 | 0.00 | 89 | 1015.7 |
| 20260507084500 | 13 | 78 | 3.2 | 4.8 | 0.00 | 0.00 | 0.00 | 87 | 1016.0 |
| 20260507083001 | 14 | 81 | 1.6 | 4.8 | 0.00 | 0.00 | 0.00 | 87 | 1016.0 |
| 20260507081500 | 14 | 96 | 1.6 | 4.8 | 0.00 | 0.00 | 0.00 | 87 | 1016.1 |
| 20260507080001 | 14 | 105 | 3.2 | 6.4 | 0.00 | 0.00 | 0.00 | 87 | 1016.2 |
| 20260507074500 | 14 | 84 | 3.2 | 6.4 | 0.00 | 0.00 | 0.00 | 86 | 1016.3 |
| 20260507073000 | 14 | 101 | 3.2 | 4.8 | 0.00 | 0.00 | 0.00 | 87 | 1016.5 |
| 20260507071501 | 15 | 82 | 1.6 | 3.2 | 0.00 | 0.00 | 0.00 | 86 | 1016.5 |
| 20260507064500 | 15 | 98 | 3.2 | 4.8 | 0.00 | 0.00 | 0.00 | 87 | 1016.5 |
| 20260507062959 | 15 | 131 | 1.6 | 4.8 | 0.00 | 0.00 | 0.00 | 86 | 1016.5 |
| 20260507060001 | 15 | 138 | 1.6 | 3.2 | 0.00 | 0.00 | 0.00 | 85 | 1016.6 |
| 20260507053000 | 15 | 169 | 1.6 | 3.2 | 0.00 | 0.00 | 0.00 | 84 | 1016.6 |
| 20260507051459 | 15 | 212 | 0.0 | 1.6 | 0.00 | 0.00 | 0.00 | 84 | 1016.5 |
| 20260507050004 | 15 | 230 | 1.6 | 4.8 | 0.00 | 0.00 | 0.00 | 84 | 1016.4 |
| 20260507043003 | 16 | 192 | 1.6 | 4.8 | 0.00 | 0.00 | 0.00 | 82 | 1016.5 |
| 20260507041503 | 16 | 207 | 3.2 | 4.8 | 0.00 | 0.00 | 0.00 | 83 | 1016.4 |
| 20260507040003 | 16 | 215 | 1.6 | 4.8 | 0.00 | 0.00 | 0.00 | 83 | 1016.3 |
| 20260507034503 | 16 | 262 | 1.6 | 4.8 | 0.00 | 0.00 | 0.00 | 83 | 1016.2 |
| 20260507033003 | 16 | 259 | 3.2 | 6.4 | 0.00 | 0.00 | 0.00 | 82 | 1016.1 |
| 20260507031504 | 16 | 259 | 3.2 | 8.0 | 0.00 | 0.00 | 0.00 | 81 | 1016.0 |
| 20260507030004 | 16 | 215 | 4.8 | 6.4 | 0.00 | 0.00 | 0.00 | 82 | 1015.9 |
| 20260507024503 | 17 | 186 | 4.8 | 8.0 | 0.00 | 0.00 | 0.00 | 80 | 1015.7 |
| 20260507023004 | 17 | 215 | 4.8 | 9.7 | 0.00 | 0.00 | 0.00 | 77 | 1015.6 |
| 20260507021504 | 18 | 225 | 6.4 | 9.7 | 0.00 | 0.00 | 0.00 | 74 | 1015.5 |
| 20260507020005 | 18 | 212 | 6.4 | 12.9 | 0.00 | 0.00 | 0.00 | 70 | 1015.3 |
| 20260507014503 | 19 | 259 | 8.0 | 14.5 | 0.00 | 0.00 | 0.00 | 67 | 1015.3 |
| 20260507013003 | 20 | 250 | 4.8 | 12.9 | 0.00 | 0.00 | 0.00 | 62 | 1015.3 |
| 20260507011503 | 20 | 222 | 4.8 | 12.9 | 0.00 | 0.00 | 0.00 | 61 | 1015.2 |
| 20260507010004 | 21 | 243 | 6.4 | 16.1 | 0.00 | 0.00 | 0.00 | 59 | 1015.1 |
| 20260507001503 | 21 | 231 | 8.0 | 16.1 | 0.00 | 0.00 | 0.00 | 60 | 1015.0 |
| 20260507000005 | 21 | 240 | 9.7 | 17.7 | 0.00 | 0.00 | 0.00 | 61 | 1014.8 |
| 20260506234502 | 21 | 216 | 8.0 | 16.1 | 0.00 | 0.00 | 0.00 | 61 | 1014.8 |
| 20260506233003 | 21 | 257 | 9.7 | 16.1 | 0.00 | 0.00 | 0.00 | 62 | 1014.8 |
| 20260506231504 | 22 | 265 | 8.0 | 19.3 | 0.00 | 0.00 | 0.00 | 60 | 1014.9 |
| 20260506230003 | 22 | 302 | 8.0 | 17.7 | 0.00 | 0.00 | 0.00 | 60 | 1015.0 |
| 20260506224502 | 22 | 272 | 11.3 | 19.3 | 0.00 | 0.00 | 0.00 | 60 | 1015.2 |
| 20260506223004 | 22 | 246 | 9.7 | 17.7 | 0.00 | 0.00 | 0.00 | 61 | 1015.3 |
| 20260506221504 | 22 | 282 | 9.7 | 16.1 | 0.00 | 0.00 | 0.00 | 60 | 1015.3 |
| 20260506220002 | 22 | 273 | 11.3 | 20.9 | 0.00 | 0.00 | 0.00 | 60 | 1015.5 |
| 20260506214502 | 23 | 215 | 9.7 | 17.7 | 0.00 | 0.00 | 0.00 | 59 | 1015.6 |
| 20260506213003 | 23 | 223 | 11.3 | 19.3 | 0.00 | 0.00 | 0.00 | 59 | 1015.8 |
| 20260506211502 | 22 | 249 | 12.9 | 24.1 | 0.00 | 0.00 | 0.00 | 59 | 1015.8 |
| 20260506204502 | 23 | 194 | 11.3 | 20.9 | 0.00 | 0.00 | 0.00 | 58 | 1016.0 |
| 20260506203002 | 23 | 260 | 8.0 | 16.1 | 0.00 | 0.00 | 0.00 | 57 | 1016.0 |
| 20260506201502 | 23 | 226 | 9.7 | 16.1 | 0.00 | 0.00 | 0.00 | 58 | 1016.2 |
| 20260506200001 | 22 | 251 | 9.7 | 17.7 | 0.00 | 0.00 | 0.00 | 59 | 1016.2 |
| 20260506194501 | 22 | 252 | 12.9 | 20.9 | 0.00 | 0.00 | 0.00 | 59 | 1016.5 |
| 20260506193001 | 23 | 237 | 11.3 | 22.5 | 0.00 | 0.00 | 0.00 | 58 | 1016.5 |
| 20260506191501 | 24 | 248 | 8.0 | 16.1 | 0.00 | 0.00 | 0.00 | 54 | 1016.6 |
| 20260506190001 | 23 | 205 | 6.4 | 17.7 | 0.00 | 0.00 | 0.00 | 55 | 1016.7 |
| 20260506184502 | 23 | 296 | 4.8 | 17.7 | 0.00 | 0.00 | 0.00 | 54 | 1016.8 |
| 20260506183001 | 23 | 274 | 3.2 | 8.0 | 0.00 | 0.00 | 0.00 | 53 | 1017.0 |
| 20260506181501 | 23 | 184 | 3.2 | 11.3 | 0.00 | 0.00 | 0.00 | 55 | 1017.1 |
| 20260506180001 | 22 | 320 | 3.2 | 11.3 | 0.00 | 0.00 | 0.00 | 52 | 1017.3 |
| 20260506174502 | 22 | 230 | 3.2 | 11.3 | 0.00 | 0.00 | 0.00 | 56 | 1017.4 |
| 20260506171503 | 22 | 227 | 3.2 | 8.0 | 0.00 | 0.00 | 0.00 | 57 | 1017.7 |
| 20260506170003 | 21 | 175 | 3.2 | 11.3 | 0.00 | 0.00 | 0.00 | 60 | 1017.6 |
| 20260506164502 | 20 | 178 | 4.8 | 11.3 | 0.00 | 0.00 | 0.00 | 61 | 1017.6 |